Map

Track Data

SID SEASON NUMBER BASIN SUBBASIN NAME ISO_TIME NATURE LAT LON WMO_WIND WMO_PRES WMO_AGENCY TRACK_TYPE DIST2LAND LANDFALL IFLAG USA_AGENCY USA_ATCF_ID USA_LAT USA_LON USA_RECORD USA_STATUS USA_WIND USA_PRES USA_SSHS USA_R34_NE USA_R34_SE USA_R34_SW USA_R34_NW USA_R50_NE USA_R50_SE USA_R50_SW USA_R50_NW USA_R64_NE USA_R64_SE USA_R64_SW USA_R64_NW USA_POCI USA_ROCI USA_RMW USA_EYE TOKYO_LAT TOKYO_LON TOKYO_GRADE TOKYO_WIND TOKYO_PRES TOKYO_R50_DIR TOKYO_R50_LONG TOKYO_R50_SHORT TOKYO_R30_DIR TOKYO_R30_LONG TOKYO_R30_SHORT TOKYO_LAND CMA_LAT CMA_LON CMA_CAT CMA_WIND CMA_PRES HKO_LAT HKO_LON HKO_CAT HKO_WIND HKO_PRES NEWDELHI_LAT NEWDELHI_LON NEWDELHI_GRADE NEWDELHI_WIND NEWDELHI_PRES NEWDELHI_CI NEWDELHI_DP NEWDELHI_POCI REUNION_LAT REUNION_LON REUNION_TYPE REUNION_WIND REUNION_PRES REUNION_TNUM REUNION_CI REUNION_RMW REUNION_R34_NE REUNION_R34_SE REUNION_R34_SW REUNION_R34_NW REUNION_R50_NE REUNION_R50_SE REUNION_R50_SW REUNION_R50_NW REUNION_R64_NE REUNION_R64_SE REUNION_R64_SW REUNION_R64_NW BOM_LAT BOM_LON BOM_TYPE BOM_WIND BOM_PRES BOM_TNUM BOM_CI BOM_RMW BOM_R34_NE BOM_R34_SE BOM_R34_SW BOM_R34_NW BOM_R50_NE BOM_R50_SE BOM_R50_SW BOM_R50_NW BOM_R64_NE BOM_R64_SE BOM_R64_SW BOM_R64_NW BOM_ROCI BOM_POCI BOM_EYE BOM_POS_METHOD BOM_PRES_METHOD NADI_LAT NADI_LON NADI_CAT NADI_WIND NADI_PRES WELLINGTON_LAT WELLINGTON_LON WELLINGTON_WIND WELLINGTON_PRES DS824_LAT DS824_LON DS824_STAGE DS824_WIND DS824_PRES TD9636_LAT TD9636_LON TD9636_STAGE TD9636_WIND TD9636_PRES TD9635_LAT TD9635_LON TD9635_WIND TD9635_PRES TD9635_ROCI NEUMANN_LAT NEUMANN_LON NEUMANN_CLASS NEUMANN_WIND NEUMANN_PRES MLC_LAT MLC_LON MLC_CLASS MLC_WIND MLC_PRES USA_GUST BOM_GUST BOM_GUST_PER REUNION_GUST REUNION_GUST_PER USA_SEAHGT USA_SEARAD_NE USA_SEARAD_SE USA_SEARAD_SW USA_SEARAD_NW STORM_SPEED STORM_DIR
1994088N09148 1994 27 WP MM OWEN 1994-03-28 18:00:00 NR 8.50000 147.700 main 1188 1188 O_____________ jtwc_wp WP021994 8.50000 147.700 15 -1 13 288
1994088N09148 1994 27 WP MM OWEN 1994-03-28 21:00:00 NR 8.69769 147.100 main 1210 1210 P_____________ WP021994 8.69769 147.100 15 -1 13 289
1994088N09148 1994 27 WP MM OWEN 1994-03-29 00:00:00 NR 8.90000 146.500 main 1232 1232 O_____________ jtwc_wp WP021994 8.90000 146.500 15 -1 13 289
1994088N09148 1994 27 WP MM OWEN 1994-03-29 03:00:00 NR 9.10740 145.900 main 1257 1257 P_____________ WP021994 9.10740 145.900 15 -1 13 289
1994088N09148 1994 27 WP MM OWEN 1994-03-29 06:00:00 NR 9.30000 145.300 main 1285 1285 O_____________ jtwc_wp WP021994 9.30000 145.300 15 -1 12 286
1994088N09148 1994 27 WP MM OWEN 1994-03-29 09:00:00 NR 9.45740 144.700 main 1316 1316 P_____________ WP021994 9.45740 144.700 15 -1 12 284
1994088N09148 1994 27 WP MM OWEN 1994-03-29 12:00:00 NR 9.60000 144.100 main 1339 1339 O_____________ jtwc_wp WP021994 9.60000 144.100 15 -1 12 284
1994088N09148 1994 27 WP MM OWEN 1994-03-29 15:00:00 NR 9.75739 143.500 main 1376 1376 P_____________ WP021994 9.75739 143.500 15 -1 12 284
1994088N09148 1994 27 WP MM OWEN 1994-03-29 18:00:00 NR 9.90000 142.900 main 1389 1376 O_____________ jtwc_wp WP021994 9.90000 142.900 15 -1 12 282
1994088N09148 1994 27 WP MM OWEN 1994-03-29 21:00:00 NR 10.0074 142.300 main 1376 1366 P_____________ WP021994 10.0074 142.300 17 -1 12 280
1994088N09148 1994 27 WP MM OWEN 1994-03-30 00:00:00 NR 10.1000 141.700 main 1367 1358 O_____________ jtwc_wp WP021994 10.1000 141.700 20 -1 12 279
1994088N09148 1994 27 WP MM OWEN 1994-03-30 03:00:00 NR 10.1999 141.100 main 1360 1344 P_____________ WP021994 10.1999 141.100 20 -1 12 280
1994088N09148 1994 27 WP MM OWEN 1994-03-30 06:00:00 NR 10.3000 140.500 main 1344 1330 O_____________ jtwc_wp WP021994 10.3000 140.500 20 -1 12 280
1994088N09148 1994 27 WP MM OWEN 1994-03-30 09:00:00 NR 10.3999 139.900 main 1330 1320 P_____________ WP021994 10.3999 139.900 20 -1 12 280
1994088N09148 1994 27 WP MM OWEN 1994-03-30 12:00:00 NR 10.5000 139.300 main 1320 1310 O_____________ jtwc_wp WP021994 10.5000 139.300 20 -1 12 280
1994088N09148 1994 27 WP MM OWEN 1994-03-30 15:00:00 NR 10.5999 138.700 main 1311 1303 P_____________ WP021994 10.5999 138.700 20 -1 12 280
1994088N09148 1994 27 WP MM OWEN 1994-03-30 18:00:00 NR 10.7000 138.100 main 1306 1246 O_____________ jtwc_wp WP021994 10.7000 138.100 20 -1 12 280
1994088N09148 1994 27 WP MM OWEN 1994-03-30 21:00:00 NR 10.8000 137.485 main 1246 1185 P_____________ WP021994 10.8000 137.485 22 -1 12 280
1994088N09148 1994 27 WP MM OWEN 1994-03-31 00:00:00 NR 10.9000 136.900 main 1185 1134 O_____________ jtwc_wp WP021994 10.9000 136.900 25 -1 11 281
1994088N09148 1994 27 WP MM OWEN 1994-03-31 03:00:00 NR 11.0074 136.370 main 1134 1083 P_____________ WP021994 11.0074 136.370 25 -1 10 282
1994088N09148 1994 27 WP MM OWEN 1994-03-31 06:00:00 NR 11.1000 135.900 main 1083 1042 O_____________ jtwc_wp WP021994 11.1000 135.900 25 -1 9 280
1994088N09148 1994 27 WP MM OWEN 1994-03-31 09:00:00 NR 11.1574 135.485 main 1042 984 P_____________ WP021994 11.1574 135.485 25 -1 10 267
1994088N09148 1994 27 WP MM OWEN 1994-03-31 12:00:00 TS 11.0429 134.929 1004 tokyo main 974 933 OOOO__________ jtwc_wp WP021994 11.2000 135.100 25 -1 10.8000 134.800 2 1004 0 0 0 10.8000 134.800 1 23 1004 10.9000 134.500 TD 25 1005 10 267
1994088N09148 1994 27 WP MM OWEN 1994-03-31 15:00:00 TS 11.0951 134.426 main 923 883 PPPP__________ WP021994 11.2499 134.700 27 -1 10.9601 134.350 2 1003 0 0 10.9576 134.350 1 26 1003 11.0577 134.030 TD 27 1002 10 278
1994088N09148 1994 27 WP MM OWEN 1994-03-31 18:00:00 TS 11.1846 133.954 1002 tokyo main 883 833 OOOO__________ jtwc_wp WP021994 11.3000 134.300 30 -1 11.1000 133.900 2 1002 0 0 0 11.1000 133.900 1 29 1002 11.2000 133.600 TD 30 1000 9 281
1994088N09148 1994 27 WP MM OWEN 1994-03-31 21:00:00 TS 11.2737 133.509 main 833 791 PPPP__________ WP021994 11.3574 133.900 30 -1 11.2074 133.450 2 1001 0 0 11.2149 133.450 1 29 1001 11.3149 133.235 TD 32 999 9 281
1994088N09148 1994 27 WP MM OWEN 1994-04-01 00:00:00 TS 11.3500 133.100 35 1000 tokyo main 794 753 OOOO__________ jtwc_wp WP021994 11.4000 133.500 30 -1 11.3000 133.000 3 35 1000 0 9 90 90 0 11.3000 133.000 1 29 1000 11.4000 132.900 TS 35 998 8 279
1994088N09148 1994 27 WP MM OWEN 1994-04-01 03:00:00 TS 11.4056 132.672 main 753 710 PPPP__________ WP021994 11.4074 133.100 32 -1 11.4075 132.520 3 35 999 0 9 90 90 11.3500 132.520 1 33 998 11.4575 132.550 TS 35 998 8 277
1994088N09148 1994 27 WP MM OWEN 1994-04-01 06:00:00 TS 11.4500 132.275 35 998 tokyo main 711 678 OOOO__________ jtwc_wp WP021994 11.4000 132.700 35 0 11.5000 132.100 3 35 998 0 9 90 90 0 11.4000 132.100 2 38 996 11.5000 132.200 TS 35 998 7 278
1994088N09148 1994 27 WP MM OWEN 1994-04-01 09:00:00 TS 11.5055 131.948 main 668 646 PPPP__________ WP021994 11.4000 132.292 37 0 11.5649 131.820 3 35 998 0 9 90 90 11.5074 131.820 2 38 996 11.5499 131.857 TS 35 998 6 279
1994088N09148 1994 27 WP MM OWEN 1994-04-01 12:00:00 TS 11.5500 131.650 35 998 tokyo main 647 603 OOOO__________ jtwc_wp WP021994 11.4000 131.900 40 0 11.6000 131.600 3 35 998 0 9 90 90 0 11.6000 131.600 2 38 996 11.6000 131.500 TS 35 998 6 276
1994088N09148 1994 27 WP MM OWEN 1994-04-01 15:00:00 TS 11.5719 131.332 main 603 571 PPPP__________ WP021994 11.4074 131.543 42 0 11.6075 131.350 3 35 997 0 9 90 90 11.6150 131.350 2 38 996 11.6576 131.085 TS 35 998 6 272
1994088N09148 1994 27 WP MM OWEN 1994-04-01 18:00:00 TS 11.5750 131.025 35 996 tokyo main 571 549 OOOO__________ jtwc_wp WP021994 11.4000 131.200 45 0 11.6000 131.100 3 35 996 0 9 90 90 0 11.6000 131.100 2 38 996 11.7000 130.700 TS 35 998 6 270
1994088N09148 1994 27 WP MM OWEN 1994-04-01 21:00:00 TS 11.5718 130.754 main 549 517 PPPP__________ WP021994 11.3500 130.842 47 0 11.6149 130.873 3 35 996 0 9 90 90 11.6074 130.873 2 38 996 11.7149 130.427 TS 37 997 5 267
1994088N09148 1994 27 WP MM OWEN 1994-04-02 00:00:00 TS 11.5500 130.475 35 996 tokyo main 517 483 OOOO__________ jtwc_wp WP021994 11.3000 130.500 50 0 11.6000 130.600 3 35 996 0 9 90 90 0 11.6000 130.600 2 38 996 11.7000 130.200 TS 40 996 6 264
1994088N09148 1994 27 WP MM OWEN 1994-04-02 03:00:00 TS 11.5094 130.139 main 472 440 PPPP__________ WP021994 11.2999 130.193 50 0 11.5151 130.207 3 35 996 0 9 105 105 11.5576 130.207 2 38 996 11.6650 129.950 TS 40 996 7 261
1994088N09148 1994 27 WP MM OWEN 1994-04-02 06:00:00 TS 11.4500 129.800 35 996 tokyo main 440 406 OOOO__________ jtwc_wp WP021994 11.3000 129.900 50 0 11.4000 129.800 3 35 996 0 9 120 120 0 11.5000 129.800 2 38 996 11.6000 129.700 TS 40 996 6 258
1994088N09148 1994 27 WP MM OWEN 1994-04-02 09:00:00 TS 11.3825 129.503 main 406 372 PPPP__________ WP021994 11.2650 129.600 52 0 11.2999 129.478 3 37 995 0 9 120 120 11.4499 129.478 2 38 995 11.5150 129.458 TS 40 996 6 255
1994088N09148 1994 27 WP MM OWEN 1994-04-02 12:00:00 TS 11.3000 129.225 40 994 tokyo main 372 350 OOOO__________ jtwc_wp WP021994 11.2000 129.300 55 0 11.2000 129.200 3 40 994 0 9 120 120 0 11.4000 129.200 2 38 995 11.4000 129.200 TS 40 996 6 252
1994088N09148 1994 27 WP MM OWEN 1994-04-02 15:00:00 TS 11.2075 128.948 main 339 316 PPPP__________ WP021994 11.1075 129.000 57 0 11.1000 128.943 3 42 993 0 9 135 135 11.3650 128.943 2 38 995 11.2575 128.908 TS 42 993 6 250
1994088N09148 1994 27 WP MM OWEN 1994-04-02 18:00:00 TS 11.1000 128.675 45 992 tokyo main 316 284 OOOO__________ jtwc_wp WP021994 11.0000 128.700 60 0 11.0000 128.700 3 45 992 0 9 150 150 0 11.3000 128.700 2 38 995 11.1000 128.600 TS 45 990 6 247
1994088N09148 1994 27 WP MM OWEN 1994-04-02 21:00:00 TS 10.9787 128.400 main 284 251 PPPP__________ WP021994 10.9000 128.393 62 0 10.9000 128.458 3 47 991 0 9 165 165 11.1725 128.458 2 43 992 10.9425 128.293 TS 45 990 6 245
1994088N09148 1994 27 WP MM OWEN 1994-04-03 00:00:00 TS 10.8500 128.125 50 990 tokyo main 251 230 OOOO__________ jtwc_wp WP021994 10.8000 128.100 65 1 10.8000 128.200 4 50 990 0 9 180 180 0 11.0000 128.200 3 48 990 10.8000 128.000 TS 45 990 6 244
1994088N09148 1994 27 WP MM OWEN 1994-04-03 03:00:00 TS 10.7212 127.850 main 231 201 PPPP__________ WP021994 10.6999 127.850 65 1 10.7000 127.908 4 50 990 0 9 180 180 10.7925 127.900 3 48 987 10.6925 127.743 TS 47 987 6 245
1994088N09148 1994 27 WP MM OWEN 1994-04-03 06:00:00 TS 10.6000 127.575 50 990 tokyo main 201 173 OOOO__________ jtwc_wp WP021994 10.6000 127.600 65 1 10.6000 127.600 4 50 990 0 9 180 180 0 10.6000 127.600 3 48 985 10.6000 127.500 STS 50 985 6 247
1994088N09148 1994 27 WP MM OWEN 1994-04-03 09:00:00 TS 10.4887 127.304 main 173 147 PPPP__________ WP021994 10.4925 127.315 67 1 10.4925 127.300 4 50 990 0 9 180 180 10.4774 127.350 3 48 985 10.4925 127.250 STS 50 985 6 250
1994088N09148 1994 27 WP MM OWEN 1994-04-03 12:00:00 TS 10.4000 127.025 50 990 tokyo main 147 117 OOOO__________ jtwc_wp WP021994 10.4000 127.000 70 1 10.4000 127.000 4 50 990 0 9 180 180 0 10.4000 127.100 3 48 985 10.4000 127.000 STS 50 985 6 255
1994088N09148 1994 27 WP MM OWEN 1994-04-03 15:00:00 TS 10.3406 126.731 main 117 99 PPPP__________ WP021994 10.3425 126.665 72 1 10.3425 126.693 4 52 987 0 9 180 180 10.3425 126.808 3 53 982 10.3350 126.758 STS 50 985 6 260
1994088N09148 1994 27 WP MM OWEN 1994-04-03 18:00:00 TS 10.3000 126.425 55 985 tokyo main 99 89 OOOO__________ jtwc_wp WP021994 10.3000 126.300 75 1 10.3000 126.400 4 55 985 9 30 30 9 180 180 0 10.3000 126.500 3 58 980 10.3000 126.500 STS 50 985 6 261
1994088N09148 1994 27 WP MM OWEN 1994-04-03 21:00:00 TS 10.2491 126.167 main 81 55 PPPP__________ WP021994 10.2499 125.923 75 1 10.2272 126.217 4 57 982 9 40 40 9 180 180 10.2272 126.267 3 58 980 10.2923 126.260 STS 55 982 6 263
1994088N09148 1994 27 WP MM OWEN 1994-04-04 00:00:00 TS 10.2250 125.800 60 980 tokyo main 55 10 OOOO__________ jtwc_wp WP021994 10.2000 125.500 75 1 10.2000 125.900 4 60 980 9 50 50 9 180 180 0 10.2000 125.900 3 58 980 10.3000 125.900 STS 60 980 10 270
1994088N09148 1994 27 WP MM OWEN 1994-04-04 03:00:00 TS 10.2440 125.179 main 10 0 PPPP__________ WP021994 10.1350 125.022 72 1 10.2779 125.195 4 60 980 9 50 50 9 180 180 10.2703 125.203 3 58 980 10.2927 125.295 STS 60 980 13 273
1994088N09148 1994 27 WP MM OWEN 1994-04-04 06:00:00 TS 10.3000 124.475 60 980 tokyo main 24 0 OOOO__________ jtwc_wp WP021994 10.1000 124.500 70 1 10.4000 124.400 4 60 980 9 50 50 9 180 180 0 10.4000 124.400 3 58 980 10.3000 124.600 STS 60 980 13 276
1994088N09148 1994 27 WP MM OWEN 1994-04-04 09:00:00 TS 10.3892 123.869 main 0 0 PPPP__________ WP021994 10.1274 123.958 65 1 10.5147 123.828 4 57 982 9 40 40 9 180 180 10.5724 123.713 3 58 980 10.3424 123.978 STS 57 982 12 279
1994088N09148 1994 27 WP MM OWEN 1994-04-04 12:00:00 TS 10.4750 123.300 55 985 tokyo main 0 0 OOOO__________ jtwc_wp WP021994 10.2000 123.400 60 0 10.6000 123.300 4 55 985 9 30 30 9 180 180 0 10.7000 123.100 3 58 980 10.4000 123.400 STS 55 985 11 276
1994088N09148 1994 27 WP MM OWEN 1994-04-04 15:00:00 TS 10.5037 122.747 main 10 10 PPPP__________ WP021994 10.2849 122.850 57 0 10.6150 122.685 4 52 987 9 9 180 180 10.6723 122.570 3 53 982 10.4423 122.885 STS 50 990 11 273
1994088N09148 1994 27 WP MM OWEN 1994-04-04 18:00:00 TS 10.5250 122.225 50 990 tokyo main 10 0 OOOO__________ jtwc_wp WP021994 10.4000 122.300 55 0 10.6000 122.100 4 50 990 9 9 180 180 0 10.6000 122.100 3 48 985 10.5000 122.400 TS 45 996 10 274
1994088N09148 1994 27 WP MM OWEN 1994-04-04 21:00:00 TS 10.5724 121.726 main 31 31 PPPP__________ WP021994 10.5424 121.750 52 0 10.5849 121.620 4 50 990 9 9 165 165 10.5774 121.635 3 48 987 10.5849 121.900 TS 42 997 10 277
1994088N09148 1994 27 WP MM OWEN 1994-04-05 00:00:00 TS 10.6500 121.250 50 990 tokyo main 66 66 OOOO__________ jtwc_wp WP021994 10.7000 121.200 50 0 10.6000 121.200 4 50 990 0 9 150 150 0 10.6000 121.200 3 48 990 10.7000 121.400 TS 40 998 9 281
1994088N09148 1994 27 WP MM OWEN 1994-04-05 03:00:00 TS 10.7524 120.780 main 120 77 PPPP__________ WP021994 10.8499 120.650 50 0 10.6624 120.785 4 47 991 0 9 125 125 10.6624 120.785 3 48 990 10.8349 120.900 TS 40 998 9 285
1994088N09148 1994 27 WP MM OWEN 1994-04-05 06:00:00 TS 10.9000 120.325 45 992 tokyo main 77 34 OOOO__________ jtwc_wp WP021994 11.0000 120.100 50 0 10.8000 120.400 3 45 992 0 9 100 100 0 10.8000 120.400 3 48 990 11.0000 120.400 TS 40 998 9 292
1994088N09148 1994 27 WP MM OWEN 1994-04-05 09:00:00 TS 11.1030 119.893 main 34 0 PPPP__________ WP021994 11.1499 119.542 50 0 11.0348 120.065 3 45 993 0 9 100 100 11.0348 120.065 3 48 990 11.1924 119.900 TS 40 998 10 296
1994088N09148 1994 27 WP MM OWEN 1994-04-05 12:00:00 TS 11.3250 119.450 45 994 tokyo main 0 0 OOOO__________ jtwc_wp WP021994 11.3000 119.000 50 0 11.3000 119.700 3 45 994 0 9 100 100 0 11.3000 119.700 3 48 990 11.4000 119.400 TS 40 998 10 295
1994088N09148 1994 27 WP MM OWEN 1994-04-05 15:00:00 TS 11.5256 118.952 main 55 55 PPPP__________ WP021994 11.4574 118.478 52 0 11.5225 119.223 3 42 995 0 9 90 90 11.5225 119.223 3 43 993 11.6000 118.885 TS 42 997 11 291
1994088N09148 1994 27 WP MM OWEN 1994-04-05 18:00:00 TS 11.7000 118.450 40 996 tokyo main 113 113 OOOO__________ jtwc_wp WP021994 11.6000 118.000 55 0 11.7000 118.700 3 40 996 0 9 80 80 0 11.7000 118.700 2 38 996 11.8000 118.400 TS 45 996 10 288
1994088N09148 1994 27 WP MM OWEN 1994-04-05 21:00:00 TS 11.8287 117.979 main 166 166 PPPP__________ WP021994 11.7074 117.577 55 0 11.8075 118.177 3 40 996 0 9 80 80 11.8075 118.177 2 38 996 11.9924 117.985 TS 45 996 9 286
1994088N09148 1994 27 WP MM OWEN 1994-04-06 00:00:00 TS 11.9500 117.550 40 996 tokyo main 215 221 OOOO__________ jtwc_wp WP021994 11.8000 117.200 55 0 11.9000 117.700 3 40 996 0 9 80 80 0 11.9000 117.700 2 38 996 12.2000 117.600 TS 45 996 8 289
1994088N09148 1994 27 WP MM OWEN 1994-04-06 03:00:00 TS 12.1012 117.161 main 260 260 PPPP__________ WP021994 11.8775 116.820 55 0 12.0424 117.320 3 40 995 0 9 80 80 12.0424 117.320 2 38 995 12.4425 117.185 TS 45 996 8 295
1994088N09148 1994 27 WP MM OWEN 1994-04-06 06:00:00 TS 12.2750 116.825 40 994 tokyo main 308 308 OOOO__________ jtwc_wp WP021994 12.0000 116.500 55 0 12.2000 117.000 3 40 994 0 9 80 80 0 12.2000 117.000 2 38 994 12.7000 116.800 TS 45 996 7 300
1994088N09148 1994 27 WP MM OWEN 1994-04-06 09:00:00 TS 12.4675 116.520 main 347 347 PPPP__________ WP021994 12.2275 116.255 55 0 12.3425 116.677 3 42 993 0 9 90 90 12.3425 116.677 2 43 992 12.9575 116.470 TS 45 996 7 307
1994088N09148 1994 27 WP MM OWEN 1994-04-06 12:00:00 TS 12.6750 116.275 45 992 tokyo main 376 376 OOOO__________ jtwc_wp WP021994 12.5000 116.100 55 0 12.5000 116.400 3 45 992 0 9 100 100 0 12.5000 116.400 3 48 990 13.2000 116.200 TS 45 996 6 314
1994088N09148 1994 27 WP MM OWEN 1994-04-06 15:00:00 TS 12.8762 116.090 main 406 406 PPPP__________ WP021994 12.7425 116.027 52 0 12.6774 116.192 3 45 992 0 9 100 100 12.6850 116.177 3 48 990 13.4000 115.962 TS 45 996 5 323
1994088N09148 1994 27 WP MM OWEN 1994-04-06 18:00:00 TS 13.1000 115.950 45 992 tokyo main 426 426 OOOO__________ jtwc_wp WP021994 13.0000 116.000 50 0 12.9000 116.000 3 45 992 0 9 100 100 0 12.9000 116.000 3 48 990 13.6000 115.800 TS 45 996 6 329
1994088N09148 1994 27 WP MM OWEN 1994-04-06 21:00:00 TS 13.3525 115.791 main 462 462 PPPP__________ WP021994 13.2925 115.935 50 0 13.1626 115.720 3 45 992 0 9 100 100 13.1125 115.798 3 48 990 13.8425 115.712 TS 45 996 6 336
1994088N09148 1994 27 WP MM OWEN 1994-04-07 00:00:00 TS 13.6500 115.700 45 992 tokyo main 489 478 OOOO__________ jtwc_wp WP021994 13.6000 115.900 50 0 13.5000 115.500 3 45 992 0 9 100 100 0 13.4000 115.700 3 48 990 14.1000 115.700 TS 45 996 7 354
1994088N09148 1994 27 WP MM OWEN 1994-04-07 03:00:00 TS 14.0031 115.725 main 478 454 PPPP__________ WP021994 13.9000 115.935 47 0 13.9500 115.455 3 45 992 0 9 100 100 13.8125 115.790 3 43 992 14.3500 115.720 TS 45 996 7 9
1994088N09148 1994 27 WP MM OWEN 1994-04-07 06:00:00 TS 14.3750 115.825 45 992 tokyo main 454 432 OOOO__________ jtwc_wp WP021994 14.2000 116.000 45 0 14.4000 115.500 3 45 992 0 9 100 100 0 14.3000 116.000 2 38 995 14.6000 115.800 TS 45 996 8 16
1994088N09148 1994 27 WP MM OWEN 1994-04-07 09:00:00 TS 14.7256 115.942 main 432 401 PPPP__________ WP021994 14.5000 116.043 45 0 14.7150 115.520 3 45 992 0 9 100 100 14.8376 116.265 2 38 995 14.8500 115.942 TS 45 996 7 20
1994088N09148 1994 27 WP MM OWEN 1994-04-07 12:00:00 TS 15.0500 116.075 45 992 tokyo main 398 382 OOOO__________ jtwc_wp WP021994 14.8000 116.100 45 0 15.0000 115.600 3 45 992 0 9 100 100 0 15.3000 116.500 2 38 995 15.1000 116.100 TS 45 996 7 21
1994088N09148 1994 27 WP MM OWEN 1994-04-07 15:00:00 TS 15.3362 116.191 main 382 366 PPPP__________ WP021994 15.1000 116.193 42 0 15.3575 115.785 3 45 992 0 9 100 100 15.5374 116.580 2 38 995 15.3500 116.208 TS 45 996 6 21
1994088N09148 1994 27 WP MM OWEN 1994-04-07 18:00:00 TS 15.6000 116.300 45 992 tokyo main 366 353 OOOO__________ jtwc_wp WP021994 15.4000 116.300 40 0 15.7000 116.000 3 45 992 0 9 100 100 0 15.7000 116.600 2 38 995 15.6000 116.300 TS 45 996 6 21
1994088N09148 1994 27 WP MM OWEN 1994-04-07 21:00:00 TS 15.8719 116.400 main 353 342 PPPP__________ WP021994 15.7000 116.393 40 0 15.9800 116.165 3 45 992 0 9 100 100 15.9500 116.643 2 38 995 15.8575 116.400 TS 45 996 6 20
1994088N09148 1994 27 WP MM OWEN 1994-04-08 00:00:00 TS 16.1250 116.500 45 992 tokyo main 342 332 OOOO__________ jtwc_wp WP021994 16.0000 116.500 40 0 16.2000 116.300 3 45 992 0 9 100 100 0 16.2000 116.700 2 38 995 16.1000 116.500 TS 45 996 5 22
1994088N09148 1994 27 WP MM OWEN 1994-04-08 03:00:00 TS 16.3356 116.599 main 332 323 PPPP__________ WP021994 16.3000 116.643 37 0 16.3499 116.385 3 42 994 0 9 95 95 16.4000 116.785 2 38 995 16.2925 116.585 TS 40 998 5 27
1994088N09148 1994 27 WP MM OWEN 1994-04-08 06:00:00 TS 16.5500 116.725 40 996 tokyo main 327 311 OOOO__________ jtwc_wp WP021994 16.6000 116.800 35 0 16.5000 116.500 3 40 996 0 9 90 90 0 16.6000 116.900 2 38 996 16.5000 116.700 TS 35 1000 6 31
1994088N09148 1994 27 WP MM OWEN 1994-04-08 09:00:00 TS 16.8194 116.899 main 311 298 PPPP__________ WP021994 16.9075 116.943 35 0 16.7350 116.727 3 37 997 0 9 85 85 16.8500 117.042 2 38 996 16.7850 116.885 TS 35 1000 7 33
1994088N09148 1994 27 WP MM OWEN 1994-04-08 12:00:00 TS 17.1000 117.100 35 998 tokyo main 301 288 OOOO__________ jtwc_wp WP021994 17.2000 117.100 35 0 17.0000 117.000 3 35 998 0 9 80 80 0 17.1000 117.200 2 38 996 17.1000 117.100 TS 35 1000 7 35
1994088N09148 1994 27 WP MM OWEN 1994-04-08 15:00:00 TS 17.3518 117.294 main 293 279 PPPP__________ WP021994 17.4650 117.300 32 -1 17.2500 117.250 3 35 999 0 9 80 80 17.2999 117.335 2 33 998 17.3925 117.293 TS 32 1001 6 38
1994088N09148 1994 27 WP MM OWEN 1994-04-08 18:00:00 TS 17.5933 117.500 35 1000 tokyo main 284 276 OOOO__________ jtwc_wp WP021994 17.7000 117.500 30 -1 17.5000 117.500 3 35 1000 0 9 80 80 0 17.5000 117.500 1 29 1000 17.7000 117.500 TD 30 1002 6 40
1994088N09148 1994 27 WP MM OWEN 1994-04-08 21:00:00 TS 17.8364 117.716 main 276 258 PPPP__________ WP021994 17.9149 117.650 27 -1 17.7500 117.750 3 1001 0 9 17.7425 117.735 1 29 1001 18.0401 117.740 TD 27 1003 6 41
1994088N09148 1994 27 WP MM OWEN 1994-04-09 00:00:00 TS 18.0700 117.940 1002 tokyo main 260 232 OOOO__________ jtwc_wp WP021994 18.1000 117.800 25 -1 18.0000 118.000 2 1002 0 0 0 18.0000 118.000 1 29 1002 18.4000 118.000 TD 25 1005 6 46
1994088N09148 1994 27 WP MM OWEN 1994-04-09 03:00:00 TS 18.2534 118.164 main 235 219 PPP___________ WP021994 18.2576 117.987 22 -1 18.2501 118.250 2 1004 0 0 18.2525 118.255 1 26 1003 TD 6 48
1994088N09148 1994 27 WP MM OWEN 1994-04-09 06:00:00 TS 18.4667 118.400 1006 tokyo main 224 OOO___________ jtwc_wp WP021994 18.4000 118.200 20 -1 18.5000 118.500 2 1006 0 0 0 18.5000 118.500 1 23 1005 6 46

Digital Typhoon Data and Search

About IBTrACS Database

This database is a web-friendly format of International Best Track Archive for Climate Stewardship (IBTrACS), a global best track data archive curated by NOAA dating back to 1842.

Updated: 2021-11-26